createdAt,value
2022-12-29T00:01:02.875Z,265.23
2022-12-29T00:03:31.365Z,161.20
2022-12-29T00:05:59.842Z,142.63
2022-12-29T00:08:28.187Z,194.52
2022-12-29T00:10:56.431Z,238.23
2022-12-29T00:13:24.852Z,265.35
2022-12-29T00:15:53.033Z,343.63
2022-12-29T00:18:21.456Z,271.67
2022-12-29T00:20:49.726Z,129.48
2022-12-29T00:23:17.991Z,75.72
2022-12-29T00:25:48.188Z,94.20
2022-12-29T00:28:16.527Z,100.55
2022-12-29T00:30:46.422Z,72.82
2022-12-29T00:33:20.200Z,143.60
2022-12-29T00:35:55.407Z,214.90
2022-12-29T00:38:24.071Z,290.40
2022-12-29T00:40:52.502Z,296.20
2022-12-29T00:43:23.739Z,107.68
2022-12-29T00:45:52.105Z,85.28
2022-12-29T00:48:20.457Z,97.47
2022-12-29T00:50:49.143Z,101.25
2022-12-29T00:53:18.479Z,108.25
2022-12-29T00:55:46.802Z,106.63
2022-12-29T00:58:15.057Z,106.72
2022-12-29T01:00:43.346Z,138.32
2022-12-29T01:03:11.571Z,127.05
2022-12-29T01:05:40.067Z,104.28
2022-12-29T01:08:09.737Z,103.40
2022-12-29T01:10:38.027Z,134.43
2022-12-29T01:13:06.536Z,207.77
2022-12-29T01:15:34.817Z,242.25
2022-12-29T01:18:03.128Z,284.33
2022-12-29T01:20:32.103Z,182.18
2022-12-29T01:23:00.321Z,107.10
2022-12-29T01:25:28.684Z,82.63
2022-12-29T01:27:58.110Z,89.03
2022-12-29T01:30:27.606Z,86.22
2022-12-29T01:32:56.083Z,86.18
2022-12-29T01:35:24.543Z,92.28
2022-12-29T01:37:52.872Z,126.10
2022-12-29T01:40:21.954Z,142.80
2022-12-29T01:42:50.951Z,146.35
2022-12-29T01:45:19.945Z,202.30
2022-12-29T01:48:03.046Z,144.80
2022-12-29T01:50:36.875Z,93.25
2022-12-29T01:53:13.067Z,75.63
2022-12-29T01:55:53.954Z,82.72
2022-12-29T01:58:28.131Z,135.40
2022-12-29T02:00:56.580Z,132.80
2022-12-29T02:03:27.859Z,119.22
2022-12-29T02:06:29.257Z,117.47
2022-12-29T02:08:58.534Z,128.30
2022-12-29T02:11:30.282Z,107.93
2022-12-29T02:14:03.195Z,109.47
2022-12-29T02:16:35.250Z,114.63
2022-12-29T02:19:26.013Z,111.25
2022-12-29T02:22:24.616Z,130.57
2022-12-29T02:25:20.774Z,119.25
2022-12-29T02:28:05.556Z,115.78
2022-12-29T02:30:53.682Z,119.15
2022-12-29T02:33:37.377Z,104.43
2022-12-29T02:36:14.585Z,100.28
2022-12-29T02:38:51.753Z,120.60
2022-12-29T02:41:34.880Z,100.78
2022-12-29T02:44:29.235Z,104.82
2022-12-29T02:47:38.306Z,86.50
2022-12-29T02:50:37.644Z,93.80
2022-12-29T02:53:13.484Z,96.13
2022-12-29T02:55:50.981Z,106.00
2022-12-29T02:58:22.964Z,97.80
2022-12-29T03:03:55.259Z,104.43
2022-12-29T03:06:45.054Z,129.48
2022-12-29T03:09:28.919Z,190.52
2022-12-29T03:12:25.318Z,178.32
2022-12-29T03:15:41.284Z,132.95
2022-12-29T03:18:24.874Z,112.88
2022-12-29T03:20:56.055Z,91.70
2022-12-29T03:23:27.996Z,83.80
2022-12-29T03:26:00.255Z,101.97
2022-12-29T03:31:01.096Z,90.05
2022-12-29T03:33:31.682Z,122.70
2022-12-29T03:36:06.626Z,129.77
2022-12-29T03:38:37.864Z,163.18
2022-12-29T03:41:13.003Z,168.77
2022-12-29T03:43:41.516Z,161.90
2022-12-29T03:46:09.870Z,190.25
2022-12-29T03:48:40.270Z,172.85
2022-12-29T03:51:08.621Z,115.43
2022-12-29T03:53:37.523Z,98.15
2022-12-29T03:56:05.982Z,90.82
2022-12-29T03:58:35.421Z,86.93
2022-12-29T04:01:29.609Z,91.80
2022-12-29T04:03:58.060Z,100.68
2022-12-29T04:06:27.175Z,113.47
2022-12-29T04:09:01.823Z,103.68
2022-12-29T04:14:05.096Z,87.78
2022-12-29T04:16:35.296Z,86.95
2022-12-29T04:19:05.821Z,88.80
2022-12-29T04:21:34.738Z,91.47
2022-12-29T04:24:03.053Z,91.70
2022-12-29T04:26:33.254Z,90.53
2022-12-29T04:29:21.997Z,93.60
2022-12-29T04:32:13.008Z,86.70
2022-12-29T04:34:46.955Z,88.07
2022-12-29T04:37:15.238Z,81.05
2022-12-29T04:39:43.615Z,83.85
2022-12-29T04:42:11.997Z,79.32
2022-12-29T04:44:45.015Z,87.88
2022-12-29T04:47:33.719Z,74.57
2022-12-29T04:50:21.319Z,88.07
2022-12-29T04:53:10.137Z,85.68
2022-12-29T04:55:39.001Z,86.72
2022-12-29T04:58:08.254Z,101.18
2022-12-29T05:00:37.213Z,94.47
2022-12-29T05:03:05.419Z,95.60
2022-12-29T05:05:33.893Z,100.10
2022-12-29T05:08:03.440Z,118.60
2022-12-29T05:10:32.306Z,103.78
2022-12-29T05:13:05.268Z,107.93
2022-12-29T05:15:34.010Z,100.88
2022-12-29T05:18:02.289Z,102.97
2022-12-29T05:20:31.135Z,113.80
2022-12-29T05:22:59.530Z,105.30
2022-12-29T05:25:28.546Z,105.25
2022-12-29T05:28:15.838Z,122.72
2022-12-29T05:30:52.464Z,112.55
2022-12-29T05:33:21.395Z,102.07
2022-12-29T05:35:51.675Z,104.82
2022-12-29T05:38:21.105Z,84.80
2022-12-29T05:40:49.228Z,99.70
2022-12-29T05:43:37.602Z,102.85
2022-12-29T05:46:28.914Z,94.65
2022-12-29T05:49:20.164Z,122.93
2022-12-29T05:52:02.925Z,101.47
2022-12-29T05:54:31.129Z,85.88
2022-12-29T05:56:59.477Z,56.95
2022-12-29T05:59:27.717Z,57.00
2022-12-29T06:01:56.743Z,56.85
2022-12-29T06:04:25.091Z,47.33
2022-12-29T06:06:54.177Z,53.15
2022-12-29T06:09:35.376Z,59.50
2022-12-29T06:12:05.940Z,50.00
2022-12-29T06:14:34.655Z,51.50
2022-12-29T06:17:04.786Z,62.42
2022-12-29T06:19:34.957Z,53.50
2022-12-29T06:22:03.422Z,51.85
2022-12-29T06:24:34.745Z,53.07
2022-12-29T06:27:03.840Z,59.75
2022-12-29T06:29:32.985Z,63.33
2022-12-29T06:32:01.364Z,56.97
2022-12-29T06:34:32.630Z,58.78
2022-12-29T06:37:01.052Z,70.78
2022-12-29T06:39:29.861Z,55.35
2022-12-29T06:42:08.482Z,62.58
2022-12-29T06:44:57.942Z,53.08
2022-12-29T06:47:26.481Z,69.53
2022-12-29T06:49:54.643Z,61.22
2022-12-29T06:52:22.795Z,71.88
2022-12-29T06:54:51.475Z,78.43
2022-12-29T06:57:19.826Z,74.38
2022-12-29T06:59:48.268Z,89.43
2022-12-29T07:02:16.643Z,76.20
2022-12-29T07:04:45.266Z,80.15
2022-12-29T07:07:13.478Z,78.53
2022-12-29T07:09:41.762Z,75.05
2022-12-29T07:12:10.031Z,102.22
2022-12-29T07:14:42.916Z,99.30
2022-12-29T07:17:11.996Z,94.97
2022-12-29T07:19:40.342Z,83.20
2022-12-29T07:22:08.576Z,87.45
2022-12-29T07:24:36.627Z,67.95
2022-12-29T07:27:05.255Z,72.47
2022-12-29T07:29:33.551Z,75.80
2022-12-29T07:32:02.057Z,82.38
2022-12-29T07:34:30.496Z,107.82
2022-12-29T07:36:58.803Z,78.50
2022-12-29T07:39:27.013Z,76.03
2022-12-29T07:41:59.551Z,75.53
2022-12-29T07:44:38.878Z,53.63
2022-12-29T07:47:25.255Z,65.63
2022-12-29T07:49:53.583Z,60.58
2022-12-29T07:52:21.812Z,66.43
2022-12-29T07:54:50.179Z,65.10
2022-12-29T07:57:18.660Z,75.93
2022-12-29T07:59:46.917Z,84.97
2022-12-29T08:02:15.454Z,115.25
2022-12-29T08:04:43.783Z,147.45
2022-12-29T08:07:12.014Z,153.00
2022-12-29T08:09:40.341Z,160.38
2022-12-29T08:12:11.976Z,135.90
2022-12-29T08:14:40.679Z,104.35
2022-12-29T08:17:08.758Z,113.10
2022-12-29T08:19:37.290Z,120.65
2022-12-29T08:22:05.632Z,124.60
2022-12-29T08:24:33.913Z,106.07
2022-12-29T08:27:10.881Z,73.68
2022-12-29T08:29:44.257Z,54.85
2022-12-29T08:32:13.500Z,62.03
2022-12-29T08:34:41.844Z,51.72
2022-12-29T08:37:10.070Z,64.57
2022-12-29T08:39:38.299Z,71.75
2022-12-29T08:42:06.590Z,92.50
2022-12-29T08:44:34.860Z,87.00
2022-12-29T08:47:03.272Z,91.07
2022-12-29T08:49:31.491Z,74.05
2022-12-29T08:51:59.654Z,86.45
2022-12-29T08:54:27.983Z,73.38
2022-12-29T08:56:56.519Z,72.28
2022-12-29T08:59:33.110Z,85.28
2022-12-29T09:02:01.833Z,71.30
2022-12-29T09:04:30.515Z,89.60
2022-12-29T09:06:59.156Z,71.30
2022-12-29T09:09:27.399Z,82.80
2022-12-29T09:11:56.003Z,79.30
2022-12-29T09:14:24.261Z,65.55
2022-12-29T09:16:56.102Z,56.72
2022-12-29T09:19:24.346Z,70.55
2022-12-29T09:21:52.475Z,57.70
2022-12-29T09:24:20.877Z,68.75
2022-12-29T09:26:49.083Z,67.72
2022-12-29T09:29:17.387Z,56.92
2022-12-29T09:31:45.764Z,63.55
2022-12-29T09:34:14.001Z,72.90
2022-12-29T09:36:42.234Z,92.43
2022-12-29T09:39:10.835Z,85.82
2022-12-29T09:42:14.479Z,60.55
2022-12-29T09:44:52.029Z,70.05
2022-12-29T09:47:22.712Z,66.93
2022-12-29T09:50:02.676Z,54.50
2022-12-29T09:52:40.728Z,82.88
2022-12-29T09:55:19.215Z,110.90
2022-12-29T09:58:00.470Z,127.15
2022-12-29T10:00:39.374Z,105.75
2022-12-29T10:03:18.450Z,88.15
2022-12-29T10:06:05.082Z,74.25
2022-12-29T10:08:54.921Z,71.43
2022-12-29T10:11:38.446Z,62.42
2022-12-29T10:14:25.121Z,80.70
2022-12-29T10:17:21.376Z,87.97
2022-12-29T10:20:14.334Z,66.10
2022-12-29T10:23:01.345Z,77.35
2022-12-29T10:25:39.747Z,75.93
2022-12-29T10:28:49.919Z,67.60
2022-12-29T10:31:23.359Z,81.40
2022-12-29T10:33:58.073Z,57.72
2022-12-29T10:36:43.387Z,56.92
2022-12-29T10:39:24.094Z,70.93
2022-12-29T10:42:03.447Z,62.92
2022-12-29T10:44:33.639Z,59.97
2022-12-29T10:47:12.895Z,78.20
2022-12-29T10:49:43.487Z,50.78
2022-12-29T10:52:13.213Z,62.90
2022-12-29T10:55:16.671Z,54.58
2022-12-29T10:57:48.817Z,61.10
2022-12-29T11:00:22.466Z,40.92
2022-12-29T11:03:09.505Z,56.53
2022-12-29T11:06:03.168Z,73.60
2022-12-29T11:08:48.350Z,65.63
2022-12-29T11:11:28.468Z,67.85
2022-12-29T11:14:21.917Z,63.33
2022-12-29T11:17:06.375Z,65.53
2022-12-29T11:19:40.790Z,60.72
2022-12-29T11:22:30.334Z,50.78
2022-12-29T11:25:12.692Z,51.83
2022-12-29T11:27:40.947Z,76.15
2022-12-29T11:30:26.469Z,60.33
2022-12-29T11:32:56.358Z,56.28
2022-12-29T11:35:41.368Z,57.63
2022-12-29T11:38:25.048Z,66.07
2022-12-29T11:40:54.064Z,58.78
2022-12-29T11:43:44.489Z,58.83
2022-12-29T11:46:27.441Z,67.90
2022-12-29T11:48:58.093Z,68.25
2022-12-29T11:51:41.133Z,65.05
2022-12-29T11:54:35.265Z,49.15
2022-12-29T11:57:18.550Z,60.20
2022-12-29T11:59:54.399Z,57.67
2022-12-29T12:02:25.775Z,66.40
2022-12-29T12:05:04.422Z,65.70
2022-12-29T12:07:48.208Z,58.22
2022-12-29T12:10:23.063Z,55.75
2022-12-29T12:13:09.934Z,53.30
2022-12-29T12:15:59.837Z,61.47
2022-12-29T12:18:34.778Z,63.22
2022-12-29T12:21:17.733Z,52.00
2022-12-29T12:23:59.868Z,49.72
2022-12-29T12:29:41.864Z,51.90
2022-12-29T12:32:41.345Z,62.50
2022-12-29T12:35:21.713Z,77.95
2022-12-29T12:38:04.381Z,57.35
2022-12-29T12:41:01.954Z,68.38
2022-12-29T12:43:41.664Z,53.95
2022-12-29T12:46:19.056Z,52.65
2022-12-29T12:49:09.057Z,64.43
2022-12-29T12:51:46.530Z,58.10
2022-12-29T12:54:53.752Z,63.22
2022-12-29T12:57:59.142Z,58.40
2022-12-29T13:00:29.524Z,88.22
2022-12-29T13:03:37.753Z,59.90
2022-12-29T13:06:18.444Z,59.75
2022-12-29T13:09:16.184Z,60.22
2022-12-29T13:12:02.843Z,70.40
2022-12-29T13:14:42.889Z,77.13
2022-12-29T13:17:29.725Z,60.08
2022-12-29T13:20:04.031Z,63.13
2022-12-29T13:22:40.288Z,66.63
2022-12-29T13:25:40.853Z,70.32
2022-12-29T13:28:18.264Z,62.22
2022-12-29T13:31:16.050Z,60.08
2022-12-29T13:33:50.918Z,52.55
2022-12-29T13:36:22.351Z,58.95
2022-12-29T13:39:02.724Z,49.50
2022-12-29T13:41:50.500Z,67.35
2022-12-29T13:44:28.778Z,62.78
2022-12-29T13:47:02.952Z,65.05
2022-12-29T13:49:31.464Z,65.28
2022-12-29T13:52:09.872Z,45.28
2022-12-29T13:55:14.927Z,70.47
2022-12-29T13:58:00.112Z,64.53
2022-12-29T14:00:33.344Z,61.15
2022-12-29T14:03:29.822Z,90.00
2022-12-29T14:06:18.345Z,76.75
2022-12-29T14:08:48.013Z,69.72
2022-12-29T14:11:18.777Z,83.97
2022-12-29T14:13:49.014Z,80.28
2022-12-29T14:16:36.850Z,76.10
2022-12-29T14:19:30.602Z,68.05
2022-12-29T14:22:01.074Z,82.88
2022-12-29T14:24:35.245Z,66.32
2022-12-29T14:27:23.608Z,64.18
2022-12-29T14:29:53.128Z,69.63
2022-12-29T14:32:27.561Z,66.63
2022-12-29T14:35:22.500Z,50.80
2022-12-29T14:38:08.082Z,81.22
2022-12-29T14:40:36.473Z,49.60
2022-12-29T14:43:34.117Z,77.85
2022-12-29T14:46:03.856Z,62.42
2022-12-29T14:48:44.024Z,80.63
2022-12-29T14:51:21.883Z,67.75
2022-12-29T14:53:53.633Z,67.35
2022-12-29T14:56:27.528Z,62.67
2022-12-29T14:59:00.693Z,76.93
2022-12-29T15:01:34.986Z,85.13
2022-12-29T15:04:23.166Z,186.00
2022-12-29T15:06:53.046Z,128.95
2022-12-29T15:09:38.047Z,95.30
2022-12-29T15:12:20.663Z,111.65
2022-12-29T15:15:00.147Z,379.45
2022-12-29T15:17:30.797Z,240.70
2022-12-29T15:20:01.820Z,242.70
2022-12-29T15:22:31.946Z,367.85
2022-12-29T15:25:00.337Z,167.25
2022-12-29T15:27:28.780Z,125.68
2022-12-29T15:30:03.420Z,181.57
2022-12-29T15:32:43.743Z,96.70
2022-12-29T15:35:32.384Z,82.35
2022-12-29T15:38:01.936Z,69.28
2022-12-29T15:40:34.522Z,83.80
2022-12-29T15:43:25.856Z,76.78
2022-12-29T15:45:56.327Z,77.93
2022-12-29T15:48:26.869Z,96.22
2022-12-29T15:50:55.602Z,89.05
2022-12-29T15:53:34.084Z,254.80
2022-12-29T15:56:07.968Z,159.00
2022-12-29T15:58:44.060Z,76.65
2022-12-29T16:01:35.256Z,158.27
2022-12-29T16:04:09.007Z,249.15
2022-12-29T16:06:38.611Z,73.65
2022-12-29T16:09:15.660Z,73.57
2022-12-29T16:11:48.314Z,106.47
2022-12-29T16:14:26.075Z,83.35
2022-12-29T16:16:54.515Z,57.97
2022-12-29T16:19:31.593Z,60.95
2022-12-29T16:22:02.362Z,85.55
2022-12-29T16:24:34.181Z,151.93
2022-12-29T16:27:11.600Z,190.70
2022-12-29T16:29:40.630Z,138.80
2022-12-29T16:32:32.622Z,84.80
2022-12-29T16:35:23.726Z,228.85
2022-12-29T16:38:19.659Z,180.13
2022-12-29T16:40:57.901Z,83.90
2022-12-29T16:43:31.577Z,63.50
2022-12-29T16:45:59.926Z,67.22
2022-12-29T16:48:31.441Z,70.95
2022-12-29T16:51:20.779Z,73.50
2022-12-29T16:53:55.160Z,63.00
2022-12-29T16:56:28.997Z,129.95
2022-12-29T16:59:08.137Z,76.72
2022-12-29T17:01:41.240Z,67.53
2022-12-29T17:04:14.419Z,105.05
2022-12-29T17:06:43.185Z,65.20
2022-12-29T17:09:21.955Z,79.00
2022-12-29T17:12:02.561Z,157.13
2022-12-29T17:14:50.551Z,141.02
2022-12-29T17:19:57.180Z,62.20
2022-12-29T17:22:29.824Z,82.38
2022-12-29T17:25:00.510Z,133.77
2022-12-29T17:27:34.110Z,71.07
2022-12-29T17:30:12.692Z,60.95
2022-12-29T17:32:43.639Z,65.03
2022-12-29T17:35:16.749Z,150.25
2022-12-29T17:37:45.915Z,121.47
2022-12-29T17:40:19.744Z,80.60
2022-12-29T17:42:50.280Z,69.70
2022-12-29T17:45:29.587Z,68.18
2022-12-29T17:47:59.042Z,68.07
2022-12-29T17:50:29.248Z,70.90
2022-12-29T17:53:01.321Z,55.13
2022-12-29T17:55:37.189Z,79.95
2022-12-29T17:58:33.553Z,68.28
2022-12-29T18:01:03.726Z,144.60
2022-12-29T18:03:35.510Z,214.98
2022-12-29T18:06:06.021Z,178.85
2022-12-29T18:08:37.325Z,157.88
2022-12-29T18:11:26.148Z,141.50
2022-12-29T18:13:55.064Z,168.00
2022-12-29T18:16:23.948Z,123.25
2022-12-29T18:18:52.346Z,89.05
2022-12-29T18:21:25.079Z,76.88
2022-12-29T18:23:53.629Z,75.88
2022-12-29T18:26:28.368Z,76.63
2022-12-29T18:28:58.252Z,78.75
2022-12-29T18:31:34.634Z,98.32
2022-12-29T18:34:08.033Z,94.63
2022-12-29T18:36:36.476Z,104.30
2022-12-29T18:39:04.778Z,119.90
2022-12-29T18:41:33.076Z,131.00
2022-12-29T18:44:01.525Z,118.07
2022-12-29T18:46:29.789Z,97.90
2022-12-29T18:48:58.092Z,125.72
2022-12-29T18:51:27.433Z,93.18
2022-12-29T18:53:55.530Z,123.50
2022-12-29T18:56:24.893Z,100.47
2022-12-29T18:58:53.424Z,104.75
2022-12-29T19:01:27.427Z,111.93
2022-12-29T19:03:55.941Z,138.35
2022-12-29T19:06:25.454Z,132.27
2022-12-29T19:08:54.065Z,178.18
2022-12-29T19:11:22.459Z,173.13
2022-12-29T19:13:50.723Z,182.85
2022-12-29T19:16:21.824Z,239.45
2022-12-29T19:19:07.782Z,236.63
2022-12-29T19:21:37.716Z,250.77
2022-12-29T19:24:06.634Z,211.52
2022-12-29T19:26:37.983Z,181.75
2022-12-29T19:29:16.282Z,185.60
2022-12-29T19:34:16.429Z,343.17
2022-12-29T19:36:45.773Z,429.83
2022-12-29T19:39:14.396Z,451.33
2022-12-29T19:41:42.652Z,449.42
2022-12-29T19:44:10.974Z,416.80
2022-12-29T19:46:39.359Z,233.63
2022-12-29T19:49:07.577Z,245.73
2022-12-29T19:51:35.973Z,248.95
2022-12-29T19:54:04.283Z,376.45
2022-12-29T19:56:32.601Z,381.67
2022-12-29T19:59:00.850Z,301.27
2022-12-29T20:01:29.164Z,222.70
2022-12-29T20:03:57.574Z,132.38
2022-12-29T20:06:25.949Z,110.68
2022-12-29T20:08:56.230Z,140.05
2022-12-29T20:11:24.838Z,137.50
2022-12-29T20:13:53.001Z,128.82
2022-12-29T20:16:21.450Z,125.57
2022-12-29T20:18:50.226Z,144.65
2022-12-29T20:21:21.481Z,119.07
2022-12-29T20:23:51.525Z,157.17
2022-12-29T20:26:28.731Z,177.25
2022-12-29T20:28:57.117Z,318.95
2022-12-29T20:31:28.739Z,319.70
2022-12-29T20:33:57.349Z,233.70
2022-12-29T20:36:30.990Z,135.10
2022-12-29T20:39:01.656Z,146.35
2022-12-29T20:41:30.202Z,171.88
2022-12-29T20:43:58.786Z,148.43
2022-12-29T20:46:34.092Z,117.13
2022-12-29T20:49:07.555Z,99.47
2022-12-29T20:52:04.428Z,75.70
2022-12-29T20:54:25.222Z,95.20
2022-12-29T20:56:53.740Z,91.25
2022-12-29T20:59:29.371Z,149.13
2022-12-29T21:01:58.770Z,120.45
2022-12-29T21:04:27.482Z,130.57
2022-12-29T21:06:56.022Z,138.30
2022-12-29T21:09:24.374Z,85.57
2022-12-29T21:11:52.563Z,148.57
2022-12-29T21:14:20.765Z,130.77
2022-12-29T21:16:48.952Z,123.25
2022-12-29T21:19:17.329Z,166.88
2022-12-29T21:21:45.682Z,108.35
2022-12-29T21:24:13.930Z,124.95
2022-12-29T21:26:42.283Z,130.70
2022-12-29T21:29:10.435Z,139.18
2022-12-29T21:31:38.832Z,135.95
2022-12-29T21:34:07.795Z,103.38
2022-12-29T21:36:36.285Z,109.93
2022-12-29T21:39:05.295Z,137.40
2022-12-29T21:41:33.794Z,124.47
2022-12-29T21:44:02.091Z,112.60
2022-12-29T21:46:30.905Z,100.03
2022-12-29T21:48:59.338Z,112.07
2022-12-29T21:51:30.897Z,85.22
2022-12-29T21:54:03.521Z,92.15
2022-12-29T21:56:33.322Z,91.57
2022-12-29T21:59:01.645Z,97.25
2022-12-29T22:01:31.916Z,93.25
2022-12-29T22:04:00.444Z,106.35
2022-12-29T22:06:37.899Z,108.05
2022-12-29T22:09:06.325Z,115.93
2022-12-29T22:11:34.637Z,223.90
2022-12-29T22:14:03.193Z,211.02
2022-12-29T22:16:31.692Z,99.70
2022-12-29T22:19:01.511Z,119.13
2022-12-29T22:21:29.935Z,113.85
2022-12-29T22:23:58.281Z,105.93
2022-12-29T22:26:26.616Z,100.88
2022-12-29T22:28:54.950Z,96.80
2022-12-29T22:31:30.082Z,85.05
2022-12-29T22:34:00.870Z,99.20
2022-12-29T22:36:30.443Z,68.95
2022-12-29T22:38:58.925Z,68.28
2022-12-29T22:41:27.318Z,67.03
2022-12-29T22:43:56.152Z,70.53
2022-12-29T22:46:24.389Z,74.32
2022-12-29T22:48:52.875Z,66.78
2022-12-29T22:51:21.099Z,74.03
2022-12-29T22:53:50.571Z,96.22
2022-12-29T22:56:19.444Z,103.78
2022-12-29T22:58:49.001Z,85.70
2022-12-29T23:01:20.334Z,100.93
2022-12-29T23:03:48.881Z,80.13
2022-12-29T23:06:18.279Z,99.55
2022-12-29T23:08:46.638Z,116.95
2022-12-29T23:11:15.225Z,87.05
2022-12-29T23:13:43.850Z,93.25
2022-12-29T23:16:12.278Z,82.63
2022-12-29T23:18:40.597Z,84.82
2022-12-29T23:21:09.500Z,75.22
2022-12-29T23:23:40.546Z,98.82
2022-12-29T23:26:13.192Z,111.28
2022-12-29T23:28:41.377Z,106.38
2022-12-29T23:31:10.017Z,89.70
2022-12-29T23:33:38.493Z,96.10
2022-12-29T23:36:07.529Z,73.22
2022-12-29T23:38:35.930Z,129.13
2022-12-29T23:41:04.607Z,298.95
2022-12-29T23:43:33.267Z,619.08
2022-12-29T23:46:21.613Z,580.53
2022-12-29T23:48:49.869Z,242.20
2022-12-29T23:51:18.413Z,135.13
2022-12-29T23:53:47.683Z,109.90
2022-12-29T23:56:19.697Z,102.93
2022-12-29T23:58:48.287Z,119.15
